createdAt,value
2022-08-26T10:02:59.839Z,29.57
2022-08-26T10:19:01.059Z,29.71
2022-08-26T13:24:49.031Z,30.51
2022-08-26T13:58:40.041Z,30.36
2022-08-26T14:01:35.332Z,30.40
2022-08-26T14:04:04.211Z,30.35
2022-08-26T16:18:08.597Z,28.37
2022-08-26T17:05:56.513Z,27.13
2022-08-26T17:08:28.945Z,27.12
2022-08-26T17:10:36.528Z,26.94
2022-08-26T17:12:44.887Z,27.02
2022-08-26T17:14:50.945Z,26.93
2022-08-26T17:16:54.749Z,26.90
2022-08-26T17:28:13.314Z,26.48
2022-08-26T17:37:06.135Z,26.04
2022-08-26T17:39:14.151Z,25.98
2022-08-26T17:41:21.060Z,25.90
2022-08-26T17:43:28.191Z,25.73
2022-08-26T17:48:12.108Z,25.70
2022-08-26T17:50:18.613Z,25.65
2022-08-26T17:52:22.056Z,25.59
2022-08-26T17:54:25.528Z,25.49
2022-08-26T17:56:30.938Z,25.42
2022-08-26T17:58:35.143Z,25.38
2022-08-26T18:00:38.745Z,25.28
2022-08-26T18:02:43.693Z,25.24
2022-08-26T18:04:47.180Z,25.11
2022-08-26T18:06:50.762Z,25.10
2022-08-26T18:08:55.015Z,24.96
2022-08-26T18:11:03.159Z,24.90
2022-08-26T18:13:12.144Z,24.90
2022-08-26T18:15:26.913Z,24.85
2022-08-26T18:17:30.254Z,24.78
2022-08-26T18:19:33.615Z,24.74
2022-08-26T18:21:37.759Z,24.72
2022-08-26T18:30:27.893Z,24.56
2022-08-26T18:32:40.616Z,24.49
2022-08-26T18:34:53.039Z,24.30
2022-08-26T18:36:57.270Z,24.29
2022-08-26T18:39:41.897Z,24.33
2022-08-26T18:42:01.754Z,24.25
2022-08-26T18:44:37.914Z,24.20
2022-08-26T18:46:42.134Z,24.10
2022-08-26T18:48:45.723Z,24.06
2022-08-26T19:00:10.885Z,23.82
2022-08-26T19:09:20.168Z,23.63
2022-08-26T19:22:49.533Z,23.38
2022-08-26T19:25:00.083Z,23.42
2022-08-26T19:37:10.030Z,23.25
2022-08-26T19:39:32.161Z,23.30
2022-08-26T19:46:25.969Z,23.19
2022-08-26T19:49:07.527Z,23.27
2022-08-26T19:51:44.048Z,23.41
2022-08-26T20:07:55.976Z,23.68
2022-08-26T20:10:26.218Z,23.66
2022-08-26T20:12:40.133Z,23.68
2022-08-26T20:14:52.231Z,23.63
2022-08-26T20:21:33.969Z,23.68
2022-08-26T20:23:37.965Z,23.57
2022-08-26T20:25:48.233Z,23.47
2022-08-26T20:27:57.040Z,23.31
2022-08-26T20:30:12.626Z,23.15
2022-08-26T20:32:22.020Z,23.10
2022-08-26T20:34:39.903Z,23.12
2022-08-26T20:39:50.036Z,23.01
2022-08-26T20:41:54.583Z,23.07
2022-08-26T20:43:58.878Z,23.01
2022-08-26T20:49:07.643Z,23.07
2022-08-26T20:51:44.226Z,23.02
2022-08-26T20:58:29.398Z,22.52
2022-08-26T21:00:44.067Z,22.41
2022-08-26T21:02:53.797Z,22.34
2022-08-26T21:05:11.956Z,22.30
2022-08-26T21:07:23.046Z,22.19
2022-08-26T21:09:32.639Z,22.23
2022-08-26T21:11:39.083Z,22.23
2022-08-26T21:20:37.093Z,22.15
2022-08-26T21:22:44.811Z,22.17
2022-08-26T21:24:53.066Z,22.16
2022-08-26T21:27:00.195Z,22.14
2022-08-26T21:29:06.154Z,22.10
2022-08-26T21:35:58.194Z,22.37
2022-08-26T21:38:10.161Z,22.38
2022-08-26T21:40:19.082Z,22.34
2022-08-26T21:42:33.844Z,22.34
2022-08-26T21:44:46.512Z,22.31
2022-08-26T21:46:59.714Z,22.29
2022-08-26T21:49:11.079Z,22.23
2022-08-26T21:51:23.478Z,22.15
2022-08-26T21:58:12.794Z,21.72
2022-08-26T22:11:36.238Z,21.32
2022-08-26T22:34:16.079Z,21.24
2022-08-26T22:58:35.409Z,21.04
2022-08-26T23:24:20.072Z,20.64
